sensor_id;sensor_type;location;lat;lon;timestamp;pressure;altitude;pressure_sealevel;temperature;humidity
15229;BME280;7717;47.792;12.076;2023-01-28T00:00:52;96516.31;;;-0.68;100.00
15229;BME280;7717;47.792;12.076;2023-01-28T00:03:17;96524.47;;;-0.54;100.00
15229;BME280;7717;47.792;12.076;2023-01-28T00:05:43;96509.59;;;-0.49;100.00
15229;BME280;7717;47.792;12.076;2023-01-28T00:08:08;96510.31;;;-0.52;100.00
15229;BME280;7717;47.792;12.076;2023-01-28T00:10:36;96507.88;;;-0.50;100.00
15229;BME280;7717;47.792;12.076;2023-01-28T00:13:04;96511.13;;;-0.53;100.00
15229;BME280;7717;47.792;12.076;2023-01-28T00:15:30;96510.09;;;-0.57;100.00
15229;BME280;7717;47.792;12.076;2023-01-28T00:17:55;96512.81;;;-0.52;100.00
15229;BME280;7717;47.792;12.076;2023-01-28T00:20:20;96509.13;;;-0.60;100.00
15229;BME280;7717;47.792;12.076;2023-01-28T00:22:49;96516.59;;;-0.62;100.00
15229;BME280;7717;47.792;12.076;2023-01-28T00:25:15;96514.72;;;-0.66;100.00
15229;BME280;7717;47.792;12.076;2023-01-28T00:27:40;96519.19;;;-0.60;100.00
15229;BME280;7717;47.792;12.076;2023-01-28T00:30:07;96523.81;;;-0.50;100.00
15229;BME280;7717;47.792;12.076;2023-01-28T00:32:32;96521.97;;;-0.54;100.00
15229;BME280;7717;47.792;12.076;2023-01-28T00:34:58;96512.56;;;-0.58;100.00
15229;BME280;7717;47.792;12.076;2023-01-28T00:37:23;96515.16;;;-0.37;100.00
15229;BME280;7717;47.792;12.076;2023-01-28T00:39:48;96520.97;;;-0.38;100.00
15229;BME280;7717;47.792;12.076;2023-01-28T00:42:14;96512.09;;;-0.49;100.00
15229;BME280;7717;47.792;12.076;2023-01-28T00:44:40;96517.84;;;-0.52;100.00
15229;BME280;7717;47.792;12.076;2023-01-28T00:47:06;96512.56;;;-0.58;100.00
15229;BME280;7717;47.792;12.076;2023-01-28T00:49:31;96510.72;;;-0.62;100.00
15229;BME280;7717;47.792;12.076;2023-01-28T00:51:57;96517.59;;;-0.78;100.00
15229;BME280;7717;47.792;12.076;2023-01-28T00:54:22;96518.38;;;-0.79;100.00
15229;BME280;7717;47.792;12.076;2023-01-28T00:56:47;96518.91;;;-0.86;100.00
15229;BME280;7717;47.792;12.076;2023-01-28T00:59:13;96517.59;;;-0.78;100.00
15229;BME280;7717;47.792;12.076;2023-01-28T01:01:39;96515.78;;;-0.80;100.00
15229;BME280;7717;47.792;12.076;2023-01-28T01:04:04;96519.50;;;-0.72;100.00
15229;BME280;7717;47.792;12.076;2023-01-28T01:06:35;96528.13;;;-0.67;100.00
15229;BME280;7717;47.792;12.076;2023-01-28T01:09:04;96522.88;;;-0.71;100.00
15229;BME280;7717;47.792;12.076;2023-01-28T01:11:29;96517.19;;;-0.67;100.00
15229;BME280;7717;47.792;12.076;2023-01-28T01:13:57;96514.94;;;-0.81;100.00
15229;BME280;7717;47.792;12.076;2023-01-28T01:16:28;96522.84;;;-0.91;100.00
15229;BME280;7717;47.792;12.076;2023-01-28T01:18:56;96512.78;;;-0.91;100.00
15229;BME280;7717;47.792;12.076;2023-01-28T01:21:25;96510.47;;;-0.86;100.00
15229;BME280;7717;47.792;12.076;2023-01-28T01:23:51;96519.16;;;-0.80;100.00
15229;BME280;7717;47.792;12.076;2023-01-28T01:26:17;96495.19;;;-0.91;100.00
15229;BME280;7717;47.792;12.076;2023-01-28T01:28:43;96512.47;;;-0.79;100.00
15229;BME280;7717;47.792;12.076;2023-01-28T01:31:14;96512.94;;;-0.88;100.00
15229;BME280;7717;47.792;12.076;2023-01-28T01:33:41;96507.81;;;-0.89;100.00
15229;BME280;7717;47.792;12.076;2023-01-28T01:36:07;96514.94;;;-0.81;100.00
15229;BME280;7717;47.792;12.076;2023-01-28T01:38:32;96520.38;;;-0.71;100.00
15229;BME280;7717;47.792;12.076;2023-01-28T01:40:59;96515.88;;;-0.59;100.00
15229;BME280;7717;47.792;12.076;2023-01-28T01:44:05;96526.41;;;-0.48;100.00
15229;BME280;7717;47.792;12.076;2023-01-28T01:46:49;96528.97;;;-0.66;100.00
15229;BME280;7717;47.792;12.076;2023-01-28T01:49:21;96532.41;;;-0.64;100.00
15229;BME280;7717;47.792;12.076;2023-01-28T01:51:53;96537.97;;;-0.71;100.00
15229;BME280;7717;47.792;12.076;2023-01-28T01:54:21;96531.59;;;-0.83;100.00
15229;BME280;7717;47.792;12.076;2023-01-28T01:56:48;96536.03;;;-0.77;100.00
15229;BME280;7717;47.792;12.076;2023-01-28T01:59:20;96512.78;;;-0.91;100.00
15229;BME280;7717;47.792;12.076;2023-01-28T02:01:46;96536.03;;;-0.77;100.00
15229;BME280;7717;47.792;12.076;2023-01-28T02:04:22;96536.09;;;-0.76;100.00
15229;BME280;7717;47.792;12.076;2023-01-28T02:06:49;96535.47;;;-0.89;100.00
15229;BME280;7717;47.792;12.076;2023-01-28T02:09:23;96539.50;;;-0.93;100.00
15229;BME280;7717;47.792;12.076;2023-01-28T02:11:50;96537.34;;;-0.85;100.00
15229;BME280;7717;47.792;12.076;2023-01-28T02:14:16;96528.03;;;-1.06;100.00
15229;BME280;7717;47.792;12.076;2023-01-28T02:16:42;96521.47;;;-1.22;100.00
15229;BME280;7717;47.792;12.076;2023-01-28T02:19:08;96543.69;;;-0.94;100.00
15229;BME280;7717;47.792;12.076;2023-01-28T02:24:35;96541.47;;;-0.68;100.00
15229;BME280;7717;47.792;12.076;2023-01-28T02:30:06;96528.81;;;-0.69;100.00
15229;BME280;7717;47.792;12.076;2023-01-28T02:32:49;96531.13;;;-0.74;100.00
15229;BME280;7717;47.792;12.076;2023-01-28T02:35:26;96537.41;;;-0.64;100.00
15229;BME280;7717;47.792;12.076;2023-01-28T02:38:00;96537.56;;;-0.61;100.00
15229;BME280;7717;47.792;12.076;2023-01-28T02:40:29;96538.44;;;-0.61;100.00
15229;BME280;7717;47.792;12.076;2023-01-28T02:42:58;96542.28;;;-0.49;100.00
15229;BME280;7717;47.792;12.076;2023-01-28T02:45:26;96537.25;;;-0.49;100.00
15229;BME280;7717;47.792;12.076;2023-01-28T02:48:13;96543.47;;;-0.41;100.00
15229;BME280;7717;47.792;12.076;2023-01-28T02:50:47;96537.97;;;-0.52;100.00
15229;BME280;7717;47.792;12.076;2023-01-28T02:53:37;96546.72;;;-0.44;100.00
15229;BME280;7717;47.792;12.076;2023-01-28T02:56:29;96546.97;;;-0.38;100.00
15229;BME280;7717;47.792;12.076;2023-01-28T03:02:07;96537.84;;;-0.55;100.00
15229;BME280;7717;47.792;12.076;2023-01-28T03:04:46;96538.38;;;-0.62;100.00
15229;BME280;7717;47.792;12.076;2023-01-28T03:07:15;96546.75;;;-0.62;100.00
15229;BME280;7717;47.792;12.076;2023-01-28T03:09:44;96536.63;;;-0.63;100.00
15229;BME280;7717;47.792;12.076;2023-01-28T03:12:17;96553.78;;;-0.55;100.00
15229;BME280;7717;47.792;12.076;2023-01-28T03:24:22;96544.19;;;-0.63;100.00
15229;BME280;7717;47.792;12.076;2023-01-28T03:27:05;96562.25;;;-0.52;100.00
15229;BME280;7717;47.792;12.076;2023-01-28T03:29:56;96555.50;;;-0.53;100.00
15229;BME280;7717;47.792;12.076;2023-01-28T03:32:43;96552.72;;;-0.60;100.00
15229;BME280;7717;47.792;12.076;2023-01-28T03:35:30;96560.25;;;-0.60;100.00
15229;BME280;7717;47.792;12.076;2023-01-28T03:38:15;96566.75;;;-0.65;100.00
15229;BME280;7717;47.792;12.076;2023-01-28T03:41:01;96561.50;;;-0.69;100.00
15229;BME280;7717;47.792;12.076;2023-01-28T03:43:28;96564.00;;;-0.89;100.00
15229;BME280;7717;47.792;12.076;2023-01-28T03:45:53;96574.81;;;-0.90;100.00
15229;BME280;7717;47.792;12.076;2023-01-28T03:48:21;96568.31;;;-1.04;100.00
15229;BME280;7717;47.792;12.076;2023-01-28T03:50:47;96566.28;;;-0.94;100.00
15229;BME280;7717;47.792;12.076;2023-01-28T03:53:14;96574.81;;;-0.90;100.00
15229;BME280;7717;47.792;12.076;2023-01-28T03:55:41;96581.28;;;-0.95;100.00
15229;BME280;7717;47.792;12.076;2023-01-28T03:58:08;96572.44;;;-0.87;100.00
15229;BME280;7717;47.792;12.076;2023-01-28T04:00:33;96567.44;;;-0.87;100.00
15229;BME280;7717;47.792;12.076;2023-01-28T04:03:03;96580.34;;;-0.79;100.00
15229;BME280;7717;47.792;12.076;2023-01-28T04:05:29;96575.88;;;-0.67;100.00
15229;BME280;7717;47.792;12.076;2023-01-28T04:07:55;96583.47;;;-0.65;100.00
15229;BME280;7717;47.792;12.076;2023-01-28T04:10:20;96570.06;;;-0.84;100.00
15229;BME280;7717;47.792;12.076;2023-01-28T04:12:45;96577.19;;;-0.93;100.00
15229;BME280;7717;47.792;12.076;2023-01-28T04:15:16;96583.13;;;-0.91;100.00
15229;BME280;7717;47.792;12.076;2023-01-28T04:17:46;96581.56;;;-0.89;100.00
15229;BME280;7717;47.792;12.076;2023-01-28T04:20:12;96587.59;;;-1.03;100.00
15229;BME280;7717;47.792;12.076;2023-01-28T04:22:38;96584.31;;;-1.02;100.00
15229;BME280;7717;47.792;12.076;2023-01-28T04:25:03;96579.00;;;-1.09;100.00
15229;BME280;7717;47.792;12.076;2023-01-28T04:27:29;96583.88;;;-1.12;100.00
15229;BME280;7717;47.792;12.076;2023-01-28T04:29:54;96576.97;;;-1.34;100.00
15229;BME280;7717;47.792;12.076;2023-01-28T04:32:19;96588.59;;;-1.18;100.00
15229;BME280;7717;47.792;12.076;2023-01-28T04:34:45;96583.88;;;-1.12;100.00
15229;BME280;7717;47.792;12.076;2023-01-28T04:37:10;96579.25;;;-1.20;100.00
15229;BME280;7717;47.792;12.076;2023-01-28T04:39:35;96602.75;;;-1.20;100.00
15229;BME280;7717;47.792;12.076;2023-01-28T04:42:01;96602.09;;;-1.16;100.00
15229;BME280;7717;47.792;12.076;2023-01-28T04:44:26;96604.53;;;-1.17;100.00
15229;BME280;7717;47.792;12.076;2023-01-28T04:46:52;96603.19;;;-1.11;100.00
15229;BME280;7717;47.792;12.076;2023-01-28T04:49:17;96608.09;;;-1.30;100.00
15229;BME280;7717;47.792;12.076;2023-01-28T04:51:42;96604.22;;;-1.41;100.00
15229;BME280;7717;47.792;12.076;2023-01-28T04:54:08;96607.88;;;-1.35;100.00
15229;BME280;7717;47.792;12.076;2023-01-28T04:56:33;96612.59;;;-1.41;100.00
15229;BME280;7717;47.792;12.076;2023-01-28T04:58:59;96614.88;;;-1.29;100.00
15229;BME280;7717;47.792;12.076;2023-01-28T05:01:24;96623.75;;;-1.18;100.00
15229;BME280;7717;47.792;12.076;2023-01-28T05:03:50;96618.88;;;-1.15;100.00
15229;BME280;7717;47.792;12.076;2023-01-28T05:06:15;96609.47;;;-1.19;100.00
15229;BME280;7717;47.792;12.076;2023-01-28T05:08:41;96621.47;;;-1.13;100.00
15229;BME280;7717;47.792;12.076;2023-01-28T05:11:06;96618.81;;;-1.16;100.00
15229;BME280;7717;47.792;12.076;2023-01-28T05:13:32;96623.06;;;-1.15;100.00
15229;BME280;7717;47.792;12.076;2023-01-28T05:15:57;96634.41;;;-1.05;100.00
15229;BME280;7717;47.792;12.076;2023-01-28T05:18:22;96635.25;;;-1.05;100.00
15229;BME280;7717;47.792;12.076;2023-01-28T05:20:48;96631.25;;;-1.01;100.00
15229;BME280;7717;47.792;12.076;2023-01-28T05:23:13;96633.03;;;-0.99;100.00
15229;BME280;7717;47.792;12.076;2023-01-28T05:25:38;96640.28;;;-0.87;100.00
15229;BME280;7717;47.792;12.076;2023-01-28T05:28:04;96624.66;;;-0.81;100.00
15229;BME280;7717;47.792;12.076;2023-01-28T05:30:29;96637.69;;;-0.70;100.00
15229;BME280;7717;47.792;12.076;2023-01-28T05:32:55;96637.91;;;-0.66;100.00
15229;BME280;7717;47.792;12.076;2023-01-28T05:35:21;96628.28;;;-0.93;100.00
15229;BME280;7717;47.792;12.076;2023-01-28T05:37:46;96644.75;;;-0.81;100.00
15229;BME280;7717;47.792;12.076;2023-01-28T05:40:12;96639.72;;;-0.81;100.00
15229;BME280;7717;47.792;12.076;2023-01-28T05:42:37;96642.44;;;-0.77;100.00
15229;BME280;7717;47.792;12.076;2023-01-28T05:45:03;96639.84;;;-0.78;100.00
15229;BME280;7717;47.792;12.076;2023-01-28T05:47:29;96638.69;;;-0.85;100.00
15229;BME280;7717;47.792;12.076;2023-01-28T05:49:54;96639.00;;;-0.79;100.00
15229;BME280;7717;47.792;12.076;2023-01-28T05:52:20;96650.03;;;-0.75;100.00
15229;BME280;7717;47.792;12.076;2023-01-28T05:54:45;96661.75;;;-0.76;100.00
15229;BME280;7717;47.792;12.076;2023-01-28T05:57:10;96654.53;;;-0.87;100.00
15229;BME280;7717;47.792;12.076;2023-01-28T05:59:36;96659.31;;;-0.92;100.00
15229;BME280;7717;47.792;12.076;2023-01-28T06:02:01;96668.41;;;-0.94;100.00
15229;BME280;7717;47.792;12.076;2023-01-28T06:04:27;96667.09;;;-0.87;100.00
15229;BME280;7717;47.792;12.076;2023-01-28T06:06:52;96666.88;;;-0.92;100.00
15229;BME280;7717;47.792;12.076;2023-01-28T06:09:18;96674.03;;;-0.82;100.00
15229;BME280;7717;47.792;12.076;2023-01-28T06:11:43;96675.91;;;-0.78;100.00
15229;BME280;7717;47.792;12.076;2023-01-28T06:14:09;96678.13;;;-0.84;100.00
15229;BME280;7717;47.792;12.076;2023-01-28T06:16:35;96680.94;;;-0.78;100.00
15229;BME280;7717;47.792;12.076;2023-01-28T06:19:01;96673.25;;;-0.81;100.00
15229;BME280;7717;47.792;12.076;2023-01-28T06:21:26;96671.16;;;-0.89;100.00
15229;BME280;7717;47.792;12.076;2023-01-28T06:23:52;96682.22;;;-0.86;100.00
15229;BME280;7717;47.792;12.076;2023-01-28T06:26:17;96676.63;;;-0.98;100.00
15229;BME280;7717;47.792;12.076;2023-01-28T06:28:42;96682.28;;;-1.02;100.00
15229;BME280;7717;47.792;12.076;2023-01-28T06:31:08;96667.88;;;-0.88;100.00
15229;BME280;7717;47.792;12.076;2023-01-28T06:33:33;96689.31;;;-0.77;100.00
15229;BME280;7717;47.792;12.076;2023-01-28T06:36:01;96696.16;;;-0.75;100.00
15229;BME280;7717;47.792;12.076;2023-01-28T06:38:27;96693.66;;;-0.75;100.00
15229;BME280;7717;47.792;12.076;2023-01-28T06:40:53;96692.69;;;-0.77;100.00
15229;BME280;7717;47.792;12.076;2023-01-28T06:43:20;96699.00;;;-0.85;100.00
15229;BME280;7717;47.792;12.076;2023-01-28T06:45:45;96700.47;;;-0.90;100.00
15229;BME280;7717;47.792;12.076;2023-01-28T06:48:11;96689.56;;;-0.91;100.00
15229;BME280;7717;47.792;12.076;2023-01-28T06:50:36;96694.91;;;-1.01;100.00
15229;BME280;7717;47.792;12.076;2023-01-28T06:53:02;96698.09;;;-0.87;100.00
15229;BME280;7717;47.792;12.076;2023-01-28T06:55:27;96707.22;;;-0.71;100.00
15229;BME280;7717;47.792;12.076;2023-01-28T06:57:52;96704.13;;;-0.65;100.00
15229;BME280;7717;47.792;12.076;2023-01-28T07:00:18;96703.75;;;-0.55;100.00
15229;BME280;7717;47.792;12.076;2023-01-28T07:02:44;96705.22;;;-0.60;100.00
15229;BME280;7717;47.792;12.076;2023-01-28T07:05:09;96706.22;;;-0.57;100.00
15229;BME280;7717;47.792;12.076;2023-01-28T07:07:35;96701.47;;;-0.68;100.00
15229;BME280;7717;47.792;12.076;2023-01-28T07:10:00;96710.72;;;-0.67;100.00
15229;BME280;7717;47.792;12.076;2023-01-28T07:12:25;96717.00;;;-0.59;100.00
15229;BME280;7717;47.792;12.076;2023-01-28T07:14:50;96716.03;;;-0.61;100.00
15229;BME280;7717;47.792;12.076;2023-01-28T07:17:16;96719.13;;;-0.49;100.00
15229;BME280;7717;47.792;12.076;2023-01-28T07:19:41;96716.50;;;-0.70;100.00
15229;BME280;7717;47.792;12.076;2023-01-28T07:22:07;96722.31;;;-0.53;100.00
15229;BME280;7717;47.792;12.076;2023-01-28T07:24:32;96720.16;;;-0.45;100.00
15229;BME280;7717;47.792;12.076;2023-01-28T07:26:57;96725.59;;;-0.54;100.00
15229;BME280;7717;47.792;12.076;2023-01-28T07:29:26;96723.81;;;-0.57;100.00
15229;BME280;7717;47.792;12.076;2023-01-28T07:31:51;96727.06;;;-0.59;100.00
15229;BME280;7717;47.792;12.076;2023-01-28T07:34:16;96721.16;;;-0.60;100.00
15229;BME280;7717;47.792;12.076;2023-01-28T07:36:42;96736.66;;;-0.50;100.00
15229;BME280;7717;47.792;12.076;2023-01-28T07:39:07;96741.63;;;-0.52;100.00
15229;BME280;7717;47.792;12.076;2023-01-28T07:41:32;96729.56;;;-0.59;100.00
15229;BME280;7717;47.792;12.076;2023-01-28T07:43:58;96748.59;;;-0.46;100.00
15229;BME280;7717;47.792;12.076;2023-01-28T07:46:23;96747.59;;;-0.50;100.00
15229;BME280;7717;47.792;12.076;2023-01-28T07:48:49;96744.28;;;-0.31;100.00
15229;BME280;7717;47.792;12.076;2023-01-28T07:51:14;96741.09;;;-0.27;100.00
15229;BME280;7717;47.792;12.076;2023-01-28T07:53:39;96747.31;;;-0.20;100.00
15229;BME280;7717;47.792;12.076;2023-01-28T07:56:05;96741.25;;;-0.06;100.00
15229;BME280;7717;47.792;12.076;2023-01-28T07:58:31;96749.63;;;0.13;100.00
15229;BME280;7717;47.792;12.076;2023-01-28T08:00:59;96752.59;;;0.04;100.00
15229;BME280;7717;47.792;12.076;2023-01-28T08:03:25;96756.91;;;-0.11;100.00
15229;BME280;7717;47.792;12.076;2023-01-28T08:05:52;96764.03;;;-0.03;100.00
15229;BME280;7717;47.792;12.076;2023-01-28T08:08:20;96766.22;;;0.27;100.00
15229;BME280;7717;47.792;12.076;2023-01-28T08:10:46;96764.34;;;0.23;100.00
15229;BME280;7717;47.792;12.076;2023-01-28T08:13:13;96769.06;;;0.35;100.00
15229;BME280;7717;47.792;12.076;2023-01-28T08:15:39;96772.78;;;0.43;100.00
15229;BME280;7717;47.792;12.076;2023-01-28T08:18:07;96773.97;;;0.51;100.00
15229;BME280;7717;47.792;12.076;2023-01-28T08:20:33;96768.78;;;0.48;100.00
15229;BME280;7717;47.792;12.076;2023-01-28T08:23:17;96780.81;;;0.54;100.00
15229;BME280;7717;47.792;12.076;2023-01-28T08:25:44;96784.84;;;0.70;100.00
15229;BME280;7717;47.792;12.076;2023-01-28T08:28:10;96787.97;;;0.64;100.00
15229;BME280;7717;47.792;12.076;2023-01-28T08:30:36;96788.09;;;0.48;100.00
15229;BME280;7717;47.792;12.076;2023-01-28T08:33:03;96786.63;;;0.33;100.00
15229;BME280;7717;47.792;12.076;2023-01-28T08:35:29;96788.09;;;0.10;100.00
15229;BME280;7717;47.792;12.076;2023-01-28T08:37:55;96790.53;;;0.27;100.00
15229;BME280;7717;47.792;12.076;2023-01-28T08:40:23;96793.81;;;0.26;100.00
15229;BME280;7717;47.792;12.076;2023-01-28T08:42:49;96799.44;;;0.20;100.00
15229;BME280;7717;47.792;12.076;2023-01-28T08:45:16;96795.22;;;0.39;100.00
15229;BME280;7717;47.792;12.076;2023-01-28T08:50:13;96800.16;;;0.75;100.00
15229;BME280;7717;47.792;12.076;2023-01-28T08:52:38;96786.22;;;0.24;100.00
15229;BME280;7717;47.792;12.076;2023-01-28T08:55:06;96799.72;;;0.26;100.00
15229;BME280;7717;47.792;12.076;2023-01-28T08:57:32;96796.69;;;0.33;100.00
15229;BME280;7717;47.792;12.076;2023-01-28T08:59:57;96799.69;;;0.44;100.00
15229;BME280;7717;47.792;12.076;2023-01-28T09:02:22;96798.28;;;0.31;100.00
15229;BME280;7717;47.792;12.076;2023-01-28T09:04:48;96800.28;;;0.39;100.00
15229;BME280;7717;47.792;12.076;2023-01-28T09:07:13;96800.13;;;0.35;100.00
15229;BME280;7717;47.792;12.076;2023-01-28T09:09:39;96802.16;;;0.62;100.00
15229;BME280;7717;47.792;12.076;2023-01-28T09:12:04;96792.53;;;0.73;100.00
15229;BME280;7717;47.792;12.076;2023-01-28T09:14:30;96794.94;;;0.89;100.00
15229;BME280;7717;47.792;12.076;2023-01-28T09:16:55;96799.28;;;0.94;100.00
15229;BME280;7717;47.792;12.076;2023-01-28T09:19:20;96791.97;;;1.19;100.00
15229;BME280;7717;47.792;12.076;2023-01-28T09:21:46;96800.69;;;1.47;100.00
15229;BME280;7717;47.792;12.076;2023-01-28T09:24:11;96806.66;;;1.30;100.00
15229;BME280;7717;47.792;12.076;2023-01-28T09:26:37;96807.81;;;1.17;100.00
15229;BME280;7717;47.792;12.076;2023-01-28T09:29:02;96807.66;;;0.93;100.00
15229;BME280;7717;47.792;12.076;2023-01-28T09:31:28;96813.94;;;0.83;100.00
15229;BME280;7717;47.792;12.076;2023-01-28T09:33:53;96818.34;;;1.06;100.00
15229;BME280;7717;47.792;12.076;2023-01-28T09:36:21;96793.22;;;1.29;100.00
15229;BME280;7717;47.792;12.076;2023-01-28T09:38:47;96807.13;;;1.40;100.00
15229;BME280;7717;47.792;12.076;2023-01-28T09:41:24;96802.66;;;1.98;100.00
15229;BME280;7717;47.792;12.076;2023-01-28T09:46:43;96802.44;;;1.92;100.00
15229;BME280;7717;47.792;12.076;2023-01-28T09:49:38;96784.97;;;2.19;100.00
15229;BME280;7717;47.792;12.076;2023-01-28T09:52:11;96794.97;;;2.63;100.00
15229;BME280;7717;47.792;12.076;2023-01-28T09:54:54;96796.91;;;2.46;100.00
15229;BME280;7717;47.792;12.076;2023-01-28T09:57:24;96785.59;;;2.36;100.00
15229;BME280;7717;47.792;12.076;2023-01-28T09:59:50;96796.63;;;2.62;100.00
15229;BME280;7717;47.792;12.076;2023-01-28T10:02:38;96792.25;;;2.34;100.00
15229;BME280;7717;47.792;12.076;2023-01-28T10:05:36;96794.25;;;2.43;100.00
15229;BME280;7717;47.792;12.076;2023-01-28T10:08:19;96787.50;;;2.66;100.00
15229;BME280;7717;47.792;12.076;2023-01-28T10:10:56;96782.78;;;2.75;100.00
15229;BME280;7717;47.792;12.076;2023-01-28T10:13:43;96769.50;;;3.05;100.00
15229;BME280;7717;47.792;12.076;2023-01-28T10:16:45;96749.69;;;3.72;100.00
15229;BME280;7717;47.792;12.076;2023-01-28T10:19:30;96754.38;;;3.87;100.00
15229;BME280;7717;47.792;12.076;2023-01-28T10:22:11;96747.41;;;3.79;100.00
15229;BME280;7717;47.792;12.076;2023-01-28T10:24:47;96746.13;;;3.38;100.00
15229;BME280;7717;47.792;12.076;2023-01-28T10:27:16;96746.78;;;3.87;100.00
15229;BME280;7717;47.792;12.076;2023-01-28T10:29:43;96729.59;;;4.64;100.00
15229;BME280;7717;47.792;12.076;2023-01-28T10:32:28;96722.34;;;5.10;100.00
15229;BME280;7717;47.792;12.076;2023-01-28T10:34:55;96719.59;;;4.39;100.00
15229;BME280;7717;47.792;12.076;2023-01-28T10:37:23;96752.81;;;3.90;100.00
15229;BME280;7717;47.792;12.076;2023-01-28T10:39:50;96740.34;;;4.25;100.00
15229;BME280;7717;47.792;12.076;2023-01-28T10:42:35;96756.44;;;4.58;100.00
15229;BME280;7717;47.792;12.076;2023-01-28T10:47:55;96739.16;;;5.07;100.00
15229;BME280;7717;47.792;12.076;2023-01-28T10:50:26;96749.81;;;4.61;100.00
15229;BME280;7717;47.792;12.076;2023-01-28T10:53:03;96733.72;;;4.61;100.00
15229;BME280;7717;47.792;12.076;2023-01-28T10:55:47;96749.38;;;4.46;100.00
15229;BME280;7717;47.792;12.076;2023-01-28T10:58:20;96739.50;;;4.87;100.00
15229;BME280;7717;47.792;12.076;2023-01-28T11:00:56;96720.78;;;4.51;100.00
15229;BME280;7717;47.792;12.076;2023-01-28T11:03:24;96731.72;;;4.20;100.00
15229;BME280;7717;47.792;12.076;2023-01-28T11:05:56;96744.78;;;4.04;100.00
15229;BME280;7717;47.792;12.076;2023-01-28T11:08:23;96752.44;;;3.51;100.00
15229;BME280;7717;47.792;12.076;2023-01-28T11:10:50;96751.88;;;3.59;100.00
15229;BME280;7717;47.792;12.076;2023-01-28T11:13:21;96742.66;;;3.62;100.00
15229;BME280;7717;47.792;12.076;2023-01-28T11:15:49;96745.59;;;3.48;100.00
15229;BME280;7717;47.792;12.076;2023-01-28T11:18:24;96728.97;;;3.84;100.00
15229;BME280;7717;47.792;12.076;2023-01-28T11:20:54;96731.22;;;4.02;100.00
15229;BME280;7717;47.792;12.076;2023-01-28T11:23:24;96713.19;;;4.21;100.00
15229;BME280;7717;47.792;12.076;2023-01-28T11:26:00;96726.06;;;4.59;100.00
15229;BME280;7717;47.792;12.076;2023-01-28T11:28:26;96726.28;;;4.08;100.00
15229;BME280;7717;47.792;12.076;2023-01-28T11:30:55;96753.19;;;3.48;100.00
15229;BME280;7717;47.792;12.076;2023-01-28T11:34:03;96740.31;;;3.68;100.00
15229;BME280;7717;47.792;12.076;2023-01-28T11:36:31;96762.16;;;3.66;100.00
15229;BME280;7717;47.792;12.076;2023-01-28T11:39:23;96749.94;;;3.52;100.00
15229;BME280;7717;47.792;12.076;2023-01-28T11:41:48;96751.94;;;3.35;100.00
15229;BME280;7717;47.792;12.076;2023-01-28T11:57:34;96723.31;;;4.51;100.00
15229;BME280;7717;47.792;12.076;2023-01-28T12:05:34;96728.28;;;4.79;100.00
15229;BME280;7717;47.792;12.076;2023-01-28T12:08:25;96736.50;;;3.53;100.00
15229;BME280;7717;47.792;12.076;2023-01-28T12:13:58;96753.25;;;3.77;100.00
15229;BME280;7717;47.792;12.076;2023-01-28T12:22:03;96742.09;;;4.28;100.00
15229;BME280;7717;47.792;12.076;2023-01-28T12:24:42;96763.50;;;3.54;100.00
15229;BME280;7717;47.792;12.076;2023-01-28T12:32:46;96768.97;;;3.15;100.00
15229;BME280;7717;47.792;12.076;2023-01-28T12:35:21;96769.06;;;3.18;100.00
15229;BME280;7717;47.792;12.076;2023-01-28T12:38:10;96769.00;;;2.67;100.00
15229;BME280;7717;47.792;12.076;2023-01-28T12:43:36;96782.91;;;2.31;100.00
15229;BME280;7717;47.792;12.076;2023-01-28T12:46:10;96777.50;;;2.69;100.00
15229;BME280;7717;47.792;12.076;2023-01-28T12:48:40;96777.72;;;2.75;100.00
15229;BME280;7717;47.792;12.076;2023-01-28T12:51:20;96781.22;;;2.32;100.00
15229;BME280;7717;47.792;12.076;2023-01-28T12:53:56;96785.31;;;2.28;100.00
15229;BME280;7717;47.792;12.076;2023-01-28T12:56:28;96791.66;;;2.19;100.00
15229;BME280;7717;47.792;12.076;2023-01-28T13:01:36;96797.66;;;2.21;100.00
15229;BME280;7717;47.792;12.076;2023-01-28T13:04:11;96796.91;;;1.79;100.00
15229;BME280;7717;47.792;12.076;2023-01-28T13:06:46;96798.88;;;1.66;100.00
15229;BME280;7717;47.792;12.076;2023-01-28T13:09:19;96801.66;;;1.51;100.00
15229;BME280;7717;47.792;12.076;2023-01-28T13:11:47;96795.44;;;1.42;100.00
15229;BME280;7717;47.792;12.076;2023-01-28T13:14:14;96801.06;;;1.56;100.00
15229;BME280;7717;47.792;12.076;2023-01-28T13:16:40;96803.69;;;1.38;100.00
15229;BME280;7717;47.792;12.076;2023-01-28T13:21:44;96803.44;;;1.32;100.00
15229;BME280;7717;47.792;12.076;2023-01-28T13:31:45;96817.00;;;1.36;100.00
15229;BME280;7717;47.792;12.076;2023-01-28T13:34:40;96804.13;;;1.49;100.00
15229;BME280;7717;47.792;12.076;2023-01-28T13:37:30;96821.66;;;1.46;100.00
15229;BME280;7717;47.792;12.076;2023-01-28T13:42:39;96818.88;;;1.40;100.00
15229;BME280;7717;47.792;12.076;2023-01-28T13:47:44;96831.16;;;1.32;100.00
15229;BME280;7717;47.792;12.076;2023-01-28T13:50:38;96838.78;;;1.34;100.00
15229;BME280;7717;47.792;12.076;2023-01-28T13:53:32;96836.38;;;1.16;100.00
15229;BME280;7717;47.792;12.076;2023-01-28T13:56:03;96840.53;;;1.15;100.00
15229;BME280;7717;47.792;12.076;2023-01-28T14:03:54;96839.44;;;1.49;100.00
15229;BME280;7717;47.792;12.076;2023-01-28T14:06:54;96834.88;;;1.61;100.00
15229;BME280;7717;47.792;12.076;2023-01-28T14:09:34;96832.53;;;1.87;100.00
15229;BME280;7717;47.792;12.076;2023-01-28T14:20:22;96838.50;;;2.10;100.00
15229;BME280;7717;47.792;12.076;2023-01-28T14:22:50;96834.34;;;2.12;100.00
15229;BME280;7717;47.792;12.076;2023-01-28T14:25:27;96842.31;;;1.79;100.00
15229;BME280;7717;47.792;12.076;2023-01-28T14:27:57;96851.56;;;1.58;100.00
15229;BME280;7717;47.792;12.076;2023-01-28T14:33:16;96843.47;;;1.86;100.00
15229;BME280;7717;47.792;12.076;2023-01-28T14:35:44;96840.94;;;1.86;100.00
15229;BME280;7717;47.792;12.076;2023-01-28T14:38:15;96846.03;;;1.88;100.00
15229;BME280;7717;47.792;12.076;2023-01-28T14:40:42;96846.59;;;1.80;100.00
15229;BME280;7717;47.792;12.076;2023-01-28T14:43:13;96853.72;;;1.70;100.00
15229;BME280;7717;47.792;12.076;2023-01-28T14:49:13;96857.09;;;1.49;100.00